Time;durP1;ratioP1;P1;durP2;ratioP2;P2;SDS_P1;SDS_P2;PMS_P1;PMS_P2;Temp;Humidity;BMP_temperature;BMP_pressure;BME280_temperature;BME280_humidity;BME280_pressure;Samples;Min_cycle;Max_cycle;Signal;HPM_P1;HPM_P2
2023/03/10 00:10:01;;;;;;;7.70;1.87;;;;;;;6.17;75.69;97687.31;20837532;28;20262;-81
2023/03/10 00:20:10;;;;;;;9.53;1.37;;;;;;;6.45;75.74;97653.28;20850987;28;20211;-81
2023/03/10 00:30:13;;;;;;;4.77;1.23;;;;;;;6.22;76.93;97642.94;20917728;28;20196;-83
2023/03/10 00:40:15;;;;;;;3.63;1.07;;;;;;;6.24;76.67;97631.38;20914168;28;20231;-82
2023/03/10 00:50:17;;;;;;;6.27;1.03;;;;;;;6.26;76.88;97615.00;20918722;28;20219;-82
2023/03/10 01:00:22;;;;;;;2.60;0.60;;;;;;;6.43;75.51;97600.41;20918227;28;20478;-80
2023/03/10 01:10:24;;;;;;;3.03;0.63;;;;;;;6.97;74.72;97611.06;20917922;28;20265;-80
2023/03/10 01:20:26;;;;;;;1.93;0.90;;;;;;;6.26;78.17;97634.59;20916088;28;20273;-82
2023/03/10 01:30:28;;;;;;;2.93;0.83;;;;;;;6.12;76.73;97618.41;20915330;28;20581;-83
2023/03/10 01:40:31;;;;;;;0.83;0.33;;;;;;;5.91;78.06;97632.91;20958403;28;20273;-82
2023/03/10 01:50:33;;;;;;;2.83;0.60;;;;;;;6.58;74.25;97638.66;20916594;28;20195;-79
2023/03/10 02:00:39;;;;;;;0.50;0.50;;;;;;;6.15;76.63;97639.25;20907966;28;20273;-83
2023/03/10 02:10:41;;;;;;;1.07;0.77;;;;;;;7.30;72.62;97652.31;20904720;28;20559;-84
2023/03/10 02:20:55;;;;;;;0.80;0.53;;;;;;;6.82;74.29;97639.38;20911523;28;20212;-85
2023/03/10 02:30:58;;;;;;;0.30;0.30;;;;;;;6.93;72.98;97634.69;20927389;28;20596;-85
2023/03/10 02:41:00;;;;;;;0.87;0.50;;;;;;;6.73;75.64;97615.22;20922361;28;20250;-84
2023/03/10 02:51:18;;;;;;;0.87;0.87;;;;;;;6.58;75.51;97630.25;20891798;28;20247;-83
2023/03/10 03:01:21;;;;;;;0.90;0.90;;;;;;;6.81;74.25;97632.13;20864580;28;20282;-85
2023/03/10 03:11:24;;;;;;;1.70;0.70;;;;;;;6.94;73.14;97628.69;20873010;28;20220;-83
2023/03/10 03:21:27;;;;;;;2.83;1.20;;;;;;;7.11;73.42;97624.44;20859840;28;20278;-84
2023/03/10 03:31:30;;;;;;;0.70;0.50;;;;;;;7.02;73.63;97618.34;20839576;28;20192;-84
2023/03/10 03:41:42;;;;;;;2.13;0.60;;;;;;;6.69;75.63;97620.00;20823645;28;20228;-83
2023/03/10 03:51:45;;;;;;;4.17;0.63;;;;;;;6.98;73.85;97620.28;20821769;28;20254;-84
2023/03/10 04:01:48;;;;;;;1.70;0.90;;;;;;;6.89;73.21;97622.59;20822108;28;20274;-80
2023/03/10 04:11:50;;;;;;;2.33;0.60;;;;;;;7.13;73.00;97613.66;20893339;28;20559;-78
2023/03/10 04:21:54;;;;;;;3.47;1.57;;;;;;;7.39;72.53;97618.31;20918204;28;20242;-82
2023/03/10 04:31:57;;;;;;;4.70;2.10;;;;;;;7.15;72.58;97607.66;20917246;28;20192;-83
2023/03/10 04:42:10;;;;;;;6.50;3.40;;;;;;;7.16;72.07;97610.06;20903408;28;20219;-83
2023/03/10 04:52:13;;;;;;;4.93;3.23;;;;;;;6.94;72.40;97602.63;20876586;28;20732;-80
2023/03/10 05:02:17;;;;;;;6.63;3.70;;;;;;;7.01;71.96;97608.31;20922678;28;20552;-80
2023/03/10 05:12:19;;;;;;;7.43;3.70;;;;;;;7.22;70.37;97577.69;20923879;28;20212;-80
2023/03/10 05:22:21;;;;;;;10.17;3.60;;;;;;;7.42;69.27;97578.25;20953883;28;20224;-84
2023/03/10 05:32:23;;;;;;;7.40;3.27;;;;;;;6.68;71.17;97595.94;20921576;28;20191;-81
2023/03/10 05:42:27;;;;;;;4.03;2.20;;;;;;;6.78;71.04;97583.22;20976870;28;20257;-81
2023/03/10 05:52:29;;;;;;;4.57;2.00;;;;;;;6.55;70.96;97583.38;20931218;28;20245;-80
2023/03/10 06:02:31;;;;;;;8.87;1.50;;;;;;;6.08;71.91;97580.31;20873801;28;20219;-80
2023/03/10 06:12:34;;;;;;;9.70;1.60;;;;;;;6.41;71.53;97571.97;20865139;28;20212;-82
2023/03/10 06:22:36;;;;;;;9.17;1.23;;;;;;;6.89;69.68;97572.13;20891264;28;20219;-82
2023/03/10 06:32:38;;;;;;;8.43;1.83;;;;;;;7.00;69.23;97567.44;20880356;28;20218;-85
2023/03/10 06:42:40;;;;;;;11.03;2.77;;;;;;;6.94;69.41;97580.19;20894761;28;20254;-82
2023/03/10 06:52:44;;;;;;;5.30;2.33;;;;;;;6.38;71.53;97584.75;20892655;28;20188;-85
2023/03/10 07:02:46;;;;;;;8.40;1.90;;;;;;;6.47;70.89;97594.84;20888153;28;20216;-82
2023/03/10 07:12:53;;;;;;;5.60;2.10;;;;;;;6.45;71.08;97598.03;20921637;28;20253;-82
2023/03/10 07:22:55;;;;;;;5.20;1.03;;;;;;;6.71;70.91;97606.38;20909674;28;20250;-86
2023/03/10 07:32:57;;;;;;;5.27;2.30;;;;;;;6.71;71.31;97619.59;20917918;28;20568;-85
2023/03/10 07:43:00;;;;;;;8.73;1.70;;;;;;;6.53;73.40;97621.34;20901624;28;20249;-82
2023/03/10 07:53:03;;;;;;;6.63;1.90;;;;;;;6.85;72.71;97639.38;20884710;28;20192;-82
2023/03/10 08:03:05;;;;;;;8.57;1.90;;;;;;;6.62;73.29;97641.50;20886519;28;20212;-82
2023/03/10 08:13:07;;;;;;;7.43;3.27;;;;;;;7.25;71.05;97644.22;20885261;28;20216;-86
2023/03/10 08:23:09;;;;;;;8.67;3.00;;;;;;;7.27;71.92;97639.03;20894883;28;20245;-84
2023/03/10 08:33:11;;;;;;;8.47;3.43;;;;;;;7.81;69.11;97645.97;20905725;28;20253;-82
2023/03/10 08:43:13;;;;;;;8.03;3.70;;;;;;;7.47;70.65;97645.25;20925701;28;20223;-84
2023/03/10 08:53:15;;;;;;;7.97;3.37;;;;;;;7.36;70.85;97647.13;20930552;28;20196;-81
2023/03/10 09:03:18;;;;;;;7.53;3.40;;;;;;;7.83;69.56;97643.59;20927789;28;20280;-83
2023/03/10 09:13:20;;;;;;;4.63;2.23;;;;;;;7.70;71.29;97645.06;20883401;28;20693;-83
2023/03/10 09:23:22;;;;;;;8.35;1.90;;;;;;;8.22;67.44;97648.66;20913567;28;20247;-83
2023/03/10 09:33:24;;;;;;;8.47;2.20;;;;;;;7.73;67.90;97670.41;20930333;28;20447;-84
2023/03/10 09:43:29;;;;;;;4.83;1.60;;;;;;;7.22;69.98;97675.06;20917584;28;20232;-84
2023/03/10 09:53:37;;;;;;;6.27;2.00;;;;;;;7.65;69.37;97660.28;20857369;28;20218;-82
2023/03/10 10:03:44;;;;;;;3.70;2.23;;;;;;;8.90;65.54;97663.91;20929011;28;20220;-81
2023/03/10 10:14:14;;;;;;;7.23;2.50;;;;;;;8.74;63.36;97658.63;20871558;28;20208;-85
2023/03/10 10:24:29;;;;;;;7.10;2.27;;;;;;;8.52;62.83;97674.56;20873399;28;20612;-83
2023/03/10 10:34:32;;;;;;;8.77;2.63;;;;;;;8.38;62.83;97664.03;20829723;28;20467;-82
2023/03/10 10:44:40;;;;;;;6.60;2.17;;;;;;;8.40;62.77;97655.19;20903224;28;20293;-82
2023/03/10 10:54:42;;;;;;;8.97;2.93;;;;;;;9.02;60.91;97664.38;20942260;28;20192;-85
2023/03/10 11:04:45;;;;;;;15.97;3.10;;;;;;;9.50;58.60;97661.25;20923754;28;20485;-84
2023/03/10 11:15:00;;;;;;;8.90;2.83;;;;;;;9.55;57.80;97641.97;20922989;28;20234;-83
2023/03/10 11:25:26;;;;;;;8.30;2.17;;;;;;;9.92;55.93;97640.78;20942002;28;20269;-84
2023/03/10 11:35:42;;;;;;;7.63;3.47;;;;;;;10.26;54.51;97624.22;20895252;28;20216;-84
2023/03/10 11:45:53;;;;;;;6.63;2.87;;;;;;;10.24;53.46;97604.88;20864968;28;20509;-85
2023/03/10 11:55:56;;;;;;;6.20;1.33;;;;;;;9.83;52.54;97606.56;20897498;28;20646;-86
2023/03/10 12:05:59;;;;;;;5.40;1.30;;;;;;;9.36;53.88;97602.09;20920948;28;20219;-85
2023/03/10 12:16:03;;;;;;;4.80;1.13;;;;;;;8.29;60.01;97623.41;20916461;28;20268;-83
2023/03/10 12:26:05;;;;;;;4.87;1.73;;;;;;;8.08;63.57;97615.66;20935245;28;20931;-82
2023/03/10 12:36:14;;;;;;;6.03;1.30;;;;;;;7.28;68.53;97631.44;20900776;28;20212;-82
2023/03/10 12:46:38;;;;;;;3.90;0.50;;;;;;;7.85;67.44;97626.34;20872378;28;20258;-81
2023/03/10 12:56:51;;;;;;;3.20;0.70;;;;;;;7.70;68.33;97605.78;20894655;28;20196;-81
2023/03/10 13:06:55;;;;;;;3.47;0.60;;;;;;;7.55;69.01;97592.78;20926766;28;20219;-83
2023/03/10 13:16:59;;;;;;;19.20;9.47;;;;;;;7.76;68.82;97573.31;20920607;28;20269;-82
2023/03/10 13:27:12;;;;;;;3.83;0.90;;;;;;;7.68;67.47;97569.66;20912792;28;20695;-82
2023/03/10 13:37:14;;;;;;;5.73;2.37;;;;;;;7.42;68.68;97559.41;20913293;28;20223;-82
2023/03/10 13:47:19;;;;;;;4.00;0.97;;;;;;;7.96;67.43;97545.75;20923650;28;20219;-80
2023/03/10 13:57:25;;;;;;;2.67;0.87;;;;;;;7.08;71.06;97550.31;20940461;28;20192;-81
2023/03/10 14:07:35;;;;;;;3.67;0.80;;;;;;;7.65;69.89;97564.00;20909926;28;20273;-81
2023/03/10 14:17:38;;;;;;;1.58;0.50;;;;;;;6.98;72.18;97569.81;20889826;28;20700;-80
2023/03/10 14:27:43;;;;;;;0.77;0.50;;;;;;;7.20;72.61;97557.63;20907595;28;20235;-81
2023/03/10 14:37:49;;;;;;;1.23;0.60;;;;;;;6.69;74.74;97540.69;20911870;28;20237;-80
2023/03/10 14:47:53;;;;;;;0.73;0.20;;;;;;;7.53;69.57;97544.63;20918358;28;20216;-83
2023/03/10 14:57:58;;;;;;;0.87;0.40;;;;;;;7.04;72.42;97552.25;20932625;28;20200;-80
2023/03/10 15:08:00;;;;;;;0.30;0.20;;;;;;;5.30;76.18;97589.13;20899896;28;20219;-81
2023/03/10 15:18:08;;;;;;;0.70;0.23;;;;;;;5.61;74.41;97598.44;20912865;28;20690;-80
2023/03/10 15:28:11;;;;;;;0.40;0.20;;;;;;;5.17;73.33;97601.69;20915749;28;20220;-80
2023/03/10 15:38:14;;;;;;;0.30;0.20;;;;;;;4.61;73.88;97615.41;20924285;28;20227;-81
2023/03/10 15:48:16;;;;;;;0.73;0.30;;;;;;;4.79;73.75;97610.97;20939414;28;20206;-80
2023/03/10 15:58:19;;;;;;;1.13;0.30;;;;;;;4.54;72.08;97624.44;20907462;28;20200;-79
2023/03/10 16:08:21;;;;;;;1.30;0.40;;;;;;;4.81;71.48;97607.81;20893509;28;20211;-80
2023/03/10 16:18:23;;;;;;;1.07;0.50;;;;;;;4.10;74.48;97625.88;20923343;28;20558;-80
2023/03/10 16:28:25;;;;;;;1.27;0.50;;;;;;;4.50;72.84;97620.75;20915935;28;20239;-79
2023/03/10 16:38:28;;;;;;;1.73;1.30;;;;;;;4.53;73.46;97636.78;20943946;28;20219;-78
2023/03/10 16:48:30;;;;;;;0.30;0.30;;;;;;;3.85;75.02;97718.19;20896476;28;20264;-79
2023/03/10 16:58:32;;;;;;;0.57;0.27;;;;;;;1.69;77.79;97854.59;20893237;28;20199;-80
2023/03/10 17:08:36;;;;;;;0.50;0.30;;;;;;;1.67;73.14;97929.19;20920551;28;20211;-79
2023/03/10 17:18:38;;;;;;;0.43;0.40;;;;;;;-0.01;74.19;98019.97;20900373;28;20204;-79
2023/03/10 17:28:41;;;;;;;0.70;0.63;;;;;;;-0.12;73.89;98099.09;20878410;28;20285;-80
2023/03/10 17:38:44;;;;;;;1.40;1.30;;;;;;;-1.37;74.57;98166.97;20900877;28;20228;-82
2023/03/10 17:48:46;;;;;;;2.13;2.00;;;;;;;-1.04;74.40;98263.56;20889083;28;20269;-80
2023/03/10 17:58:51;;;;;;;2.37;2.17;;;;;;;-1.19;71.19;98289.66;20911787;28;20192;-82
2023/03/10 18:08:53;;;;;;;2.57;2.37;;;;;;;-1.76;76.02;98368.75;20901213;28;20583;-82
2023/03/10 18:18:58;;;;;;;3.40;3.03;;;;;;;-1.70;76.24;98423.66;20915072;28;20192;-81
2023/03/10 18:29:00;;;;;;;3.30;3.00;;;;;;;-0.97;72.65;98479.97;20888197;28;20750;-81
2023/03/10 18:39:03;;;;;;;3.50;2.87;;;;;;;-1.64;72.92;98551.63;20922083;28;20227;-80
2023/03/10 18:49:15;;;;;;;3.13;2.67;;;;;;;-1.78;75.29;98606.09;20829485;28;20220;-81
2023/03/10 18:59:18;;;;;;;2.37;2.13;;;;;;;-2.33;73.52;98659.19;20923535;28;20204;-83
2023/03/10 19:09:23;;;;;;;3.23;2.60;;;;;;;-2.08;71.60;98705.00;20900787;28;20636;-84
2023/03/10 19:19:27;;;;;;;4.33;2.77;;;;;;;-1.76;72.07;98728.34;20895457;28;20239;-83
2023/03/10 19:29:32;;;;;;;3.73;2.67;;;;;;;-1.77;72.07;98787.56;20926341;28;20270;-84
2023/03/10 19:39:35;;;;;;;2.47;2.27;;;;;;;-1.43;73.15;98826.06;20878442;28;20228;-82
2023/03/10 19:49:38;;;;;;;4.13;2.23;;;;;;;-1.45;69.96;98865.09;20866900;28;20289;-82
2023/03/10 19:59:40;;;;;;;4.03;3.37;;;;;;;-1.89;70.58;98915.22;20893150;28;20238;-82
2023/03/10 20:09:44;;;;;;;3.93;3.37;;;;;;;-1.47;70.02;98947.59;20870909;28;20231;-82
2023/03/10 20:19:47;;;;;;;4.80;3.50;;;;;;;-1.67;69.04;98970.00;20896785;28;20184;-83
2023/03/10 20:29:49;;;;;;;3.50;2.97;;;;;;;-1.38;68.04;98992.91;20878986;28;20301;-82
2023/03/10 20:39:51;;;;;;;3.00;2.30;;;;;;;-1.09;67.11;99008.59;20843162;28;20280;-83
2023/03/10 20:49:54;;;;;;;2.20;1.90;;;;;;;-1.27;68.16;99030.41;20855302;28;20243;-82
2023/03/10 20:59:57;;;;;;;2.17;1.97;;;;;;;-1.02;66.91;99058.91;20873967;28;20222;-82
2023/03/10 21:09:59;;;;;;;3.20;2.80;;;;;;;-1.55;69.48;99072.81;20893061;28;20215;-82
2023/03/10 21:20:06;;;;;;;4.13;3.73;;;;;;;-0.84;66.87;99083.06;20885772;28;20269;-81
2023/03/10 21:30:11;;;;;;;3.27;3.00;;;;;;;-0.81;67.84;99105.41;20879488;28;20279;-83
2023/03/10 21:40:18;;;;;;;2.50;2.30;;;;;;;-0.63;66.58;99116.88;20869834;28;20208;-82
2023/03/10 21:50:21;;;;;;;3.23;3.03;;;;;;;-1.24;67.07;99150.81;20879296;28;20273;-81
2023/03/10 22:00:23;;;;;;;3.80;3.07;;;;;;;-1.19;67.80;99164.59;20834680;28;20596;-82
2023/03/10 22:10:26;;;;;;;3.37;3.07;;;;;;;-1.14;68.14;99193.06;20856839;28;20227;-83
2023/03/10 22:20:28;;;;;;;4.70;3.87;;;;;;;-0.32;65.02;99203.25;20848545;28;20270;-85
2023/03/10 22:30:30;;;;;;;4.70;4.23;;;;;;;-0.72;68.44;99223.94;20846954;28;20220;-83
2023/03/10 22:40:33;;;;;;;5.03;4.53;;;;;;;-0.50;66.74;99246.44;20852949;28;20525;-83
2023/03/10 22:50:38;;;;;;;5.73;4.40;;;;;;;-1.15;67.59;99265.38;20886986;28;20216;-85
2023/03/10 23:00:41;;;;;;;5.53;3.90;;;;;;;-1.40;68.63;99287.72;20834889;28;20360;-84
2023/03/10 23:10:43;;;;;;;2.57;2.37;;;;;;;-1.50;70.68;99313.53;20833840;28;20228;-83
2023/03/10 23:20:47;;;;;;;2.57;2.37;;;;;;;-0.97;68.75;99322.00;20827527;28;20618;-83
2023/03/10 23:30:50;;;;;;;3.10;2.47;;;;;;;-1.73;69.86;99347.44;20835645;28;20224;-84
2023/03/10 23:40:54;;;;;;;3.30;3.00;;;;;;;-1.61;71.37;99357.06;20846002;28;20232;-84
2023/03/10 23:50:56;;;;;;;3.50;2.80;;;;;;;-1.79;71.70;99371.53;20839821;28;20274;-84
